sensor_id;sensor_type;location;lat;lon;timestamp;P1;durP1;ratioP1;P2;durP2;ratioP2
26718;SDS011;14326;50.794;6.060;2023-03-03T00:01:07;41.28;;;16.35;;
26718;SDS011;14326;50.794;6.060;2023-03-03T00:03:34;37.63;;;16.10;;
26718;SDS011;14326;50.794;6.060;2023-03-03T00:06:01;38.08;;;15.75;;
26718;SDS011;14326;50.794;6.060;2023-03-03T00:08:29;40.42;;;16.13;;
26718;SDS011;14326;50.794;6.060;2023-03-03T00:10:58;38.25;;;14.80;;
26718;SDS011;14326;50.794;6.060;2023-03-03T00:13:27;41.22;;;16.48;;
26718;SDS011;14326;50.794;6.060;2023-03-03T00:15:57;40.40;;;15.75;;
26718;SDS011;14326;50.794;6.060;2023-03-03T00:18:40;38.03;;;14.88;;
26718;SDS011;14326;50.794;6.060;2023-03-03T00:21:14;37.28;;;14.90;;
26718;SDS011;14326;50.794;6.060;2023-03-03T00:27:26;41.97;;;17.00;;
26718;SDS011;14326;50.794;6.060;2023-03-03T00:30:16;36.80;;;14.77;;
26718;SDS011;14326;50.794;6.060;2023-03-03T00:32:43;40.13;;;17.13;;
26718;SDS011;14326;50.794;6.060;2023-03-03T00:35:21;46.22;;;17.05;;
26718;SDS011;14326;50.794;6.060;2023-03-03T00:37:52;48.20;;;18.23;;
26718;SDS011;14326;50.794;6.060;2023-03-03T00:42:51;46.42;;;17.42;;
26718;SDS011;14326;50.794;6.060;2023-03-03T00:45:29;44.85;;;17.92;;
26718;SDS011;14326;50.794;6.060;2023-03-03T00:47:58;48.45;;;18.30;;
26718;SDS011;14326;50.794;6.060;2023-03-03T00:50:43;44.50;;;17.52;;
26718;SDS011;14326;50.794;6.060;2023-03-03T00:53:14;45.20;;;18.33;;
26718;SDS011;14326;50.794;6.060;2023-03-03T00:58:54;32.53;;;13.20;;
26718;SDS011;14326;50.794;6.060;2023-03-03T01:01:20;44.90;;;17.25;;
26718;SDS011;14326;50.794;6.060;2023-03-03T01:03:49;42.08;;;17.20;;
26718;SDS011;14326;50.794;6.060;2023-03-03T01:06:16;42.63;;;17.42;;
26718;SDS011;14326;50.794;6.060;2023-03-03T01:08:42;43.47;;;17.25;;
26718;SDS011;14326;50.794;6.060;2023-03-03T01:11:10;38.35;;;16.35;;
26718;SDS011;14326;50.794;6.060;2023-03-03T01:13:41;37.53;;;16.02;;
26718;SDS011;14326;50.794;6.060;2023-03-03T01:16:11;40.08;;;16.77;;
26718;SDS011;14326;50.794;6.060;2023-03-03T01:18:37;39.13;;;16.75;;
26718;SDS011;14326;50.794;6.060;2023-03-03T01:21:06;42.13;;;17.63;;
26718;SDS011;14326;50.794;6.060;2023-03-03T01:23:32;40.38;;;17.65;;
26718;SDS011;14326;50.794;6.060;2023-03-03T01:25:59;40.33;;;16.13;;
26718;SDS011;14326;50.794;6.060;2023-03-03T01:28:26;43.08;;;17.08;;
26718;SDS011;14326;50.794;6.060;2023-03-03T01:30:53;45.28;;;17.08;;
26718;SDS011;14326;50.794;6.060;2023-03-03T01:33:21;40.38;;;17.85;;
26718;SDS011;14326;50.794;6.060;2023-03-03T01:35:47;50.30;;;19.77;;
26718;SDS011;14326;50.794;6.060;2023-03-03T01:38:14;42.25;;;18.55;;
26718;SDS011;14326;50.794;6.060;2023-03-03T01:40:41;41.22;;;16.67;;
26718;SDS011;14326;50.794;6.060;2023-03-03T01:43:07;44.70;;;18.35;;
26718;SDS011;14326;50.794;6.060;2023-03-03T01:45:42;44.65;;;18.08;;
26718;SDS011;14326;50.794;6.060;2023-03-03T01:48:27;45.60;;;18.58;;
26718;SDS011;14326;50.794;6.060;2023-03-03T01:51:03;52.80;;;22.15;;
26718;SDS011;14326;50.794;6.060;2023-03-03T01:53:55;59.97;;;24.42;;
26718;SDS011;14326;50.794;6.060;2023-03-03T01:58:51;59.45;;;23.33;;
26718;SDS011;14326;50.794;6.060;2023-03-03T02:01:25;54.63;;;22.08;;
26718;SDS011;14326;50.794;6.060;2023-03-03T02:03:55;64.93;;;27.67;;
26718;SDS011;14326;50.794;6.060;2023-03-03T02:06:23;80.57;;;33.13;;
26718;SDS011;14326;50.794;6.060;2023-03-03T02:08:55;89.70;;;34.53;;
26718;SDS011;14326;50.794;6.060;2023-03-03T02:11:25;88.53;;;36.03;;
26718;SDS011;14326;50.794;6.060;2023-03-03T02:13:54;101.93;;;38.00;;
26718;SDS011;14326;50.794;6.060;2023-03-03T02:16:21;95.15;;;37.75;;
26718;SDS011;14326;50.794;6.060;2023-03-03T02:18:48;99.00;;;39.30;;
26718;SDS011;14326;50.794;6.060;2023-03-03T02:21:17;107.35;;;39.85;;
26718;SDS011;14326;50.794;6.060;2023-03-03T02:23:47;113.68;;;41.90;;
26718;SDS011;14326;50.794;6.060;2023-03-03T02:26:20;119.18;;;42.75;;
26718;SDS011;14326;50.794;6.060;2023-03-03T02:28:48;107.00;;;39.47;;
26718;SDS011;14326;50.794;6.060;2023-03-03T02:31:16;120.00;;;43.17;;
26718;SDS011;14326;50.794;6.060;2023-03-03T02:33:46;116.45;;;42.55;;
26718;SDS011;14326;50.794;6.060;2023-03-03T02:36:14;119.20;;;42.55;;
26718;SDS011;14326;50.794;6.060;2023-03-03T02:38:43;114.53;;;43.83;;
26718;SDS011;14326;50.794;6.060;2023-03-03T02:41:15;109.25;;;44.53;;
26718;SDS011;14326;50.794;6.060;2023-03-03T02:43:53;139.23;;;43.80;;
26718;SDS011;14326;50.794;6.060;2023-03-03T02:46:24;129.80;;;43.13;;
26718;SDS011;14326;50.794;6.060;2023-03-03T02:48:51;116.68;;;42.03;;
26718;SDS011;14326;50.794;6.060;2023-03-03T02:51:18;135.77;;;42.80;;
26718;SDS011;14326;50.794;6.060;2023-03-03T02:53:44;133.32;;;44.25;;
26718;SDS011;14326;50.794;6.060;2023-03-03T02:56:11;155.30;;;46.00;;
26718;SDS011;14326;50.794;6.060;2023-03-03T02:58:39;140.55;;;44.40;;
26718;SDS011;14326;50.794;6.060;2023-03-03T03:01:06;162.80;;;45.60;;
26718;SDS011;14326;50.794;6.060;2023-03-03T03:03:32;161.27;;;46.75;;
26718;SDS011;14326;50.794;6.060;2023-03-03T03:05:59;144.25;;;45.75;;
26718;SDS011;14326;50.794;6.060;2023-03-03T03:08:26;169.75;;;48.95;;
26718;SDS011;14326;50.794;6.060;2023-03-03T03:10:57;154.60;;;45.88;;
26718;SDS011;14326;50.794;6.060;2023-03-03T03:13:32;167.77;;;47.00;;
26718;SDS011;14326;50.794;6.060;2023-03-03T03:16:00;174.63;;;50.38;;
26718;SDS011;14326;50.794;6.060;2023-03-03T03:18:27;180.75;;;49.58;;
26718;SDS011;14326;50.794;6.060;2023-03-03T03:20:54;165.80;;;51.00;;
26718;SDS011;14326;50.794;6.060;2023-03-03T03:23:20;186.45;;;52.03;;
26718;SDS011;14326;50.794;6.060;2023-03-03T03:25:47;226.63;;;56.75;;
26718;SDS011;14326;50.794;6.060;2023-03-03T03:28:15;176.00;;;52.85;;
26718;SDS011;14326;50.794;6.060;2023-03-03T03:30:42;197.52;;;55.53;;
26718;SDS011;14326;50.794;6.060;2023-03-03T03:33:11;182.15;;;50.13;;
26718;SDS011;14326;50.794;6.060;2023-03-03T03:35:38;203.40;;;55.95;;
26718;SDS011;14326;50.794;6.060;2023-03-03T03:38:09;190.65;;;52.70;;
26718;SDS011;14326;50.794;6.060;2023-03-03T03:40:36;205.52;;;55.00;;
26718;SDS011;14326;50.794;6.060;2023-03-03T03:43:03;197.45;;;55.70;;
26718;SDS011;14326;50.794;6.060;2023-03-03T03:45:29;186.85;;;54.30;;
26718;SDS011;14326;50.794;6.060;2023-03-03T03:47:56;209.13;;;57.53;;
26718;SDS011;14326;50.794;6.060;2023-03-03T03:56:08;209.00;;;58.47;;
26718;SDS011;14326;50.794;6.060;2023-03-03T03:58:35;223.68;;;60.22;;
26718;SDS011;14326;50.794;6.060;2023-03-03T04:01:02;223.20;;;58.45;;
26718;SDS011;14326;50.794;6.060;2023-03-03T04:03:32;223.73;;;58.22;;
26718;SDS011;14326;50.794;6.060;2023-03-03T04:06:00;219.75;;;57.90;;
26718;SDS011;14326;50.794;6.060;2023-03-03T04:08:26;239.98;;;59.63;;
26718;SDS011;14326;50.794;6.060;2023-03-03T04:10:53;220.57;;;57.42;;
26718;SDS011;14326;50.794;6.060;2023-03-03T04:13:20;246.20;;;63.60;;
26718;SDS011;14326;50.794;6.060;2023-03-03T04:15:47;239.73;;;63.22;;
26718;SDS011;14326;50.794;6.060;2023-03-03T04:18:13;224.50;;;61.05;;
26718;SDS011;14326;50.794;6.060;2023-03-03T04:20:40;258.23;;;64.82;;
26718;SDS011;14326;50.794;6.060;2023-03-03T04:23:20;235.18;;;61.03;;
26718;SDS011;14326;50.794;6.060;2023-03-03T04:28:14;231.02;;;63.05;;
26718;SDS011;14326;50.794;6.060;2023-03-03T04:30:42;247.27;;;61.95;;
26718;SDS011;14326;50.794;6.060;2023-03-03T04:33:09;243.40;;;65.78;;
26718;SDS011;14326;50.794;6.060;2023-03-03T04:35:44;253.40;;;65.38;;
26718;SDS011;14326;50.794;6.060;2023-03-03T04:38:32;271.42;;;67.28;;
26718;SDS011;14326;50.794;6.060;2023-03-03T04:41:00;286.00;;;67.50;;
26718;SDS011;14326;50.794;6.060;2023-03-03T04:43:26;266.10;;;67.80;;
26718;SDS011;14326;50.794;6.060;2023-03-03T04:45:53;265.98;;;67.95;;
26718;SDS011;14326;50.794;6.060;2023-03-03T04:48:24;252.52;;;64.30;;
26718;SDS011;14326;50.794;6.060;2023-03-03T04:51:02;315.75;;;72.90;;
26718;SDS011;14326;50.794;6.060;2023-03-03T04:53:33;277.48;;;69.15;;
26718;SDS011;14326;50.794;6.060;2023-03-03T04:56:00;285.08;;;67.38;;
26718;SDS011;14326;50.794;6.060;2023-03-03T04:58:29;308.90;;;70.45;;
26718;SDS011;14326;50.794;6.060;2023-03-03T05:00:56;281.45;;;67.80;;
26718;SDS011;14326;50.794;6.060;2023-03-03T05:03:23;293.65;;;71.68;;
26718;SDS011;14326;50.794;6.060;2023-03-03T05:05:51;289.48;;;70.30;;
26718;SDS011;14326;50.794;6.060;2023-03-03T05:08:18;289.63;;;70.38;;
26718;SDS011;14326;50.794;6.060;2023-03-03T05:11:16;286.83;;;68.07;;
26718;SDS011;14326;50.794;6.060;2023-03-03T05:14:08;267.20;;;65.78;;
26718;SDS011;14326;50.794;6.060;2023-03-03T05:16:40;311.13;;;65.88;;
26718;SDS011;14326;50.794;6.060;2023-03-03T05:19:07;288.23;;;66.22;;
26718;SDS011;14326;50.794;6.060;2023-03-03T05:21:33;283.83;;;67.30;;
26718;SDS011;14326;50.794;6.060;2023-03-03T05:24:01;291.30;;;70.57;;
26718;SDS011;14326;50.794;6.060;2023-03-03T05:26:29;300.85;;;71.75;;
26718;SDS011;14326;50.794;6.060;2023-03-03T05:28:56;282.08;;;67.60;;
26718;SDS011;14326;50.794;6.060;2023-03-03T05:31:22;298.77;;;71.07;;
26718;SDS011;14326;50.794;6.060;2023-03-03T05:33:51;283.90;;;69.72;;
26718;SDS011;14326;50.794;6.060;2023-03-03T05:36:17;275.65;;;65.55;;
26718;SDS011;14326;50.794;6.060;2023-03-03T05:38:44;261.48;;;67.43;;
26718;SDS011;14326;50.794;6.060;2023-03-03T05:41:11;270.15;;;66.82;;
26718;SDS011;14326;50.794;6.060;2023-03-03T05:43:39;285.38;;;69.20;;
26718;SDS011;14326;50.794;6.060;2023-03-03T05:46:05;275.95;;;67.55;;
26718;SDS011;14326;50.794;6.060;2023-03-03T05:48:33;278.40;;;70.40;;
26718;SDS011;14326;50.794;6.060;2023-03-03T05:50:59;278.60;;;69.63;;
26718;SDS011;14326;50.794;6.060;2023-03-03T05:53:26;255.60;;;65.30;;
26718;SDS011;14326;50.794;6.060;2023-03-03T05:55:53;248.93;;;66.18;;
26718;SDS011;14326;50.794;6.060;2023-03-03T05:58:20;246.20;;;64.75;;
26718;SDS011;14326;50.794;6.060;2023-03-03T06:00:49;237.73;;;61.60;;
26718;SDS011;14326;50.794;6.060;2023-03-03T06:03:16;241.45;;;60.80;;
26718;SDS011;14326;50.794;6.060;2023-03-03T06:05:42;241.18;;;63.15;;
26718;SDS011;14326;50.794;6.060;2023-03-03T06:08:11;220.73;;;61.03;;
26718;SDS011;14326;50.794;6.060;2023-03-03T06:10:38;240.18;;;61.03;;
26718;SDS011;14326;50.794;6.060;2023-03-03T06:13:04;239.13;;;63.60;;
26718;SDS011;14326;50.794;6.060;2023-03-03T06:15:31;239.02;;;62.35;;
26718;SDS011;14326;50.794;6.060;2023-03-03T06:17:59;229.48;;;60.17;;
26718;SDS011;14326;50.794;6.060;2023-03-03T06:20:26;236.70;;;60.05;;
26718;SDS011;14326;50.794;6.060;2023-03-03T06:22:52;215.23;;;59.03;;
26718;SDS011;14326;50.794;6.060;2023-03-03T06:25:19;212.18;;;58.92;;
26718;SDS011;14326;50.794;6.060;2023-03-03T06:27:45;226.38;;;59.17;;
26718;SDS011;14326;50.794;6.060;2023-03-03T06:30:12;226.90;;;57.97;;
26718;SDS011;14326;50.794;6.060;2023-03-03T06:32:39;220.05;;;57.90;;
26718;SDS011;14326;50.794;6.060;2023-03-03T06:35:07;226.23;;;63.22;;
26718;SDS011;14326;50.794;6.060;2023-03-03T06:37:34;207.98;;;59.70;;
26718;SDS011;14326;50.794;6.060;2023-03-03T06:40:01;215.93;;;59.45;;
26718;SDS011;14326;50.794;6.060;2023-03-03T06:42:28;215.50;;;60.65;;
26718;SDS011;14326;50.794;6.060;2023-03-03T06:44:54;201.88;;;57.75;;
26718;SDS011;14326;50.794;6.060;2023-03-03T06:47:43;227.73;;;60.28;;
26718;SDS011;14326;50.794;6.060;2023-03-03T06:50:11;211.90;;;56.33;;
26718;SDS011;14326;50.794;6.060;2023-03-03T06:52:38;218.25;;;58.58;;
26718;SDS011;14326;50.794;6.060;2023-03-03T06:55:10;212.60;;;57.25;;
26718;SDS011;14326;50.794;6.060;2023-03-03T06:57:38;190.23;;;56.58;;
26718;SDS011;14326;50.794;6.060;2023-03-03T07:00:14;211.55;;;54.58;;
26718;SDS011;14326;50.794;6.060;2023-03-03T07:02:44;204.75;;;55.08;;
26718;SDS011;14326;50.794;6.060;2023-03-03T07:05:14;202.35;;;55.72;;
26718;SDS011;14326;50.794;6.060;2023-03-03T07:07:42;214.35;;;55.72;;
26718;SDS011;14326;50.794;6.060;2023-03-03T07:10:17;193.50;;;52.72;;
26718;SDS011;14326;50.794;6.060;2023-03-03T07:12:48;205.95;;;53.63;;
26718;SDS011;14326;50.794;6.060;2023-03-03T07:15:15;190.18;;;54.28;;
26718;SDS011;14326;50.794;6.060;2023-03-03T07:17:46;198.77;;;52.63;;
26718;SDS011;14326;50.794;6.060;2023-03-03T07:20:17;199.95;;;53.38;;
26718;SDS011;14326;50.794;6.060;2023-03-03T07:22:45;204.75;;;54.10;;
26718;SDS011;14326;50.794;6.060;2023-03-03T07:28:10;198.85;;;52.45;;
26718;SDS011;14326;50.794;6.060;2023-03-03T07:30:46;204.48;;;52.15;;
26718;SDS011;14326;50.794;6.060;2023-03-03T07:33:44;213.07;;;56.05;;
26718;SDS011;14326;50.794;6.060;2023-03-03T07:36:23;207.20;;;55.65;;
26718;SDS011;14326;50.794;6.060;2023-03-03T07:38:56;218.82;;;56.38;;
26718;SDS011;14326;50.794;6.060;2023-03-03T07:41:25;155.95;;;43.05;;
26718;SDS011;14326;50.794;6.060;2023-03-03T07:43:53;216.65;;;56.38;;
26718;SDS011;14326;50.794;6.060;2023-03-03T07:46:27;218.13;;;59.47;;
26718;SDS011;14326;50.794;6.060;2023-03-03T07:49:36;231.35;;;59.45;;
26718;SDS011;14326;50.794;6.060;2023-03-03T07:51:52;209.20;;;55.13;;
26718;SDS011;14326;50.794;6.060;2023-03-03T07:54:26;215.32;;;58.80;;
26718;SDS011;14326;50.794;6.060;2023-03-03T07:57:04;156.43;;;44.30;;
26718;SDS011;14326;50.794;6.060;2023-03-03T07:59:38;216.30;;;60.47;;
26718;SDS011;14326;50.794;6.060;2023-03-03T08:02:15;207.75;;;56.92;;
26718;SDS011;14326;50.794;6.060;2023-03-03T08:04:58;217.07;;;57.53;;
26718;SDS011;14326;50.794;6.060;2023-03-03T08:07:28;205.63;;;57.35;;
26718;SDS011;14326;50.794;6.060;2023-03-03T08:10:01;204.45;;;55.08;;
26718;SDS011;14326;50.794;6.060;2023-03-03T08:15:17;205.65;;;58.35;;
26718;SDS011;14326;50.794;6.060;2023-03-03T08:17:46;209.65;;;55.33;;
26718;SDS011;14326;50.794;6.060;2023-03-03T08:20:36;214.30;;;57.55;;
26718;SDS011;14326;50.794;6.060;2023-03-03T08:23:14;188.38;;;52.97;;
26718;SDS011;14326;50.794;6.060;2023-03-03T08:25:42;197.07;;;53.40;;
26718;SDS011;14326;50.794;6.060;2023-03-03T08:28:09;177.13;;;53.47;;
26718;SDS011;14326;50.794;6.060;2023-03-03T08:30:38;179.98;;;55.70;;
26718;SDS011;14326;50.794;6.060;2023-03-03T08:33:05;186.10;;;53.10;;
26718;SDS011;14326;50.794;6.060;2023-03-03T08:35:32;180.50;;;54.25;;
26718;SDS011;14326;50.794;6.060;2023-03-03T08:37:59;175.77;;;52.47;;
26718;SDS011;14326;50.794;6.060;2023-03-03T08:40:28;175.38;;;54.03;;
26718;SDS011;14326;50.794;6.060;2023-03-03T08:42:56;180.53;;;53.77;;
26718;SDS011;14326;50.794;6.060;2023-03-03T08:47:53;179.27;;;49.53;;
26718;SDS011;14326;50.794;6.060;2023-03-03T08:50:20;181.25;;;53.42;;
26718;SDS011;14326;50.794;6.060;2023-03-03T08:52:48;182.40;;;53.35;;
26718;SDS011;14326;50.794;6.060;2023-03-03T08:55:16;184.48;;;54.47;;
26718;SDS011;14326;50.794;6.060;2023-03-03T08:57:45;163.55;;;49.30;;
26718;SDS011;14326;50.794;6.060;2023-03-03T09:00:13;169.88;;;49.10;;
26718;SDS011;14326;50.794;6.060;2023-03-03T09:02:42;193.80;;;52.60;;
26718;SDS011;14326;50.794;6.060;2023-03-03T09:05:09;198.85;;;55.10;;
26718;SDS011;14326;50.794;6.060;2023-03-03T09:07:37;169.50;;;53.83;;
26718;SDS011;14326;50.794;6.060;2023-03-03T09:10:06;181.27;;;53.63;;
26718;SDS011;14326;50.794;6.060;2023-03-03T09:12:35;164.95;;;51.25;;
26718;SDS011;14326;50.794;6.060;2023-03-03T09:15:21;160.77;;;49.30;;
26718;SDS011;14326;50.794;6.060;2023-03-03T09:17:53;159.38;;;48.30;;
26718;SDS011;14326;50.794;6.060;2023-03-03T09:20:26;164.63;;;47.42;;
26718;SDS011;14326;50.794;6.060;2023-03-03T09:23:24;150.45;;;46.97;;
26718;SDS011;14326;50.794;6.060;2023-03-03T09:28:53;162.77;;;47.40;;
26718;SDS011;14326;50.794;6.060;2023-03-03T09:31:23;162.52;;;48.13;;
26718;SDS011;14326;50.794;6.060;2023-03-03T09:33:53;162.93;;;48.35;;
26718;SDS011;14326;50.794;6.060;2023-03-03T09:36:24;155.93;;;47.53;;
26718;SDS011;14326;50.794;6.060;2023-03-03T09:38:53;156.65;;;49.78;;
26718;SDS011;14326;50.794;6.060;2023-03-03T09:41:24;162.13;;;50.97;;
26718;SDS011;14326;50.794;6.060;2023-03-03T09:44:20;168.95;;;53.10;;
26718;SDS011;14326;50.794;6.060;2023-03-03T09:47:09;168.45;;;50.03;;
26718;SDS011;14326;50.794;6.060;2023-03-03T09:52:57;165.52;;;49.97;;
26718;SDS011;14326;50.794;6.060;2023-03-03T09:55:38;152.48;;;47.92;;
26718;SDS011;14326;50.794;6.060;2023-03-03T09:58:26;163.50;;;47.20;;
26718;SDS011;14326;50.794;6.060;2023-03-03T10:01:05;161.43;;;47.35;;
26718;SDS011;14326;50.794;6.060;2023-03-03T10:03:55;171.27;;;50.90;;
26718;SDS011;14326;50.794;6.060;2023-03-03T10:06:34;158.27;;;51.33;;
26718;SDS011;14326;50.794;6.060;2023-03-03T10:09:16;173.40;;;51.83;;
26718;SDS011;14326;50.794;6.060;2023-03-03T10:12:00;160.73;;;52.17;;
26718;SDS011;14326;50.794;6.060;2023-03-03T10:14:38;148.00;;;49.40;;
26718;SDS011;14326;50.794;6.060;2023-03-03T10:17:24;141.32;;;45.70;;
26718;SDS011;14326;50.794;6.060;2023-03-03T10:20:06;139.82;;;44.92;;
26718;SDS011;14326;50.794;6.060;2023-03-03T10:22:51;139.50;;;44.60;;
26718;SDS011;14326;50.794;6.060;2023-03-03T10:25:24;132.70;;;43.95;;
26718;SDS011;14326;50.794;6.060;2023-03-03T10:28:12;137.95;;;45.92;;
26718;SDS011;14326;50.794;6.060;2023-03-03T10:30:56;143.95;;;44.75;;
26718;SDS011;14326;50.794;6.060;2023-03-03T10:33:31;143.35;;;44.50;;
26718;SDS011;14326;50.794;6.060;2023-03-03T10:39:02;130.18;;;44.88;;
26718;SDS011;14326;50.794;6.060;2023-03-03T10:45:12;141.82;;;46.72;;
26718;SDS011;14326;50.794;6.060;2023-03-03T10:47:56;144.95;;;46.22;;
26718;SDS011;14326;50.794;6.060;2023-03-03T10:50:43;140.88;;;44.60;;
26718;SDS011;14326;50.794;6.060;2023-03-03T10:53:24;106.55;;;34.13;;
26718;SDS011;14326;50.794;6.060;2023-03-03T10:56:04;147.80;;;46.40;;
26718;SDS011;14326;50.794;6.060;2023-03-03T10:58:45;137.95;;;44.10;;
26718;SDS011;14326;50.794;6.060;2023-03-03T11:01:31;135.13;;;45.15;;
26718;SDS011;14326;50.794;6.060;2023-03-03T11:07:01;118.55;;;40.45;;
26718;SDS011;14326;50.794;6.060;2023-03-03T11:09:38;132.77;;;43.38;;
26718;SDS011;14326;50.794;6.060;2023-03-03T11:12:26;131.23;;;44.83;;
26718;SDS011;14326;50.794;6.060;2023-03-03T11:15:03;134.07;;;44.38;;
26718;SDS011;14326;50.794;6.060;2023-03-03T11:17:49;121.32;;;40.35;;
26718;SDS011;14326;50.794;6.060;2023-03-03T11:20:27;129.10;;;42.17;;
26718;SDS011;14326;50.794;6.060;2023-03-03T11:23:04;137.40;;;45.38;;
26718;SDS011;14326;50.794;6.060;2023-03-03T11:25:48;117.65;;;42.15;;
26718;SDS011;14326;50.794;6.060;2023-03-03T11:28:23;123.15;;;41.47;;
26718;SDS011;14326;50.794;6.060;2023-03-03T11:30:58;123.68;;;41.58;;
26718;SDS011;14326;50.794;6.060;2023-03-03T11:33:37;131.57;;;43.42;;
26718;SDS011;14326;50.794;6.060;2023-03-03T11:36:17;127.13;;;42.65;;
26718;SDS011;14326;50.794;6.060;2023-03-03T11:38:55;135.65;;;45.85;;
26718;SDS011;14326;50.794;6.060;2023-03-03T11:41:31;128.90;;;44.17;;
26718;SDS011;14326;50.794;6.060;2023-03-03T11:44:07;139.23;;;44.00;;
26718;SDS011;14326;50.794;6.060;2023-03-03T11:46:42;141.20;;;45.50;;
26718;SDS011;14326;50.794;6.060;2023-03-03T11:49:14;147.10;;;46.00;;
26718;SDS011;14326;50.794;6.060;2023-03-03T11:51:49;138.20;;;46.50;;
26718;SDS011;14326;50.794;6.060;2023-03-03T11:54:26;133.30;;;45.75;;
26718;SDS011;14326;50.794;6.060;2023-03-03T11:57:00;152.65;;;47.00;;
26718;SDS011;14326;50.794;6.060;2023-03-03T11:59:42;140.05;;;44.30;;
26718;SDS011;14326;50.794;6.060;2023-03-03T12:02:24;151.43;;;46.08;;
26718;SDS011;14326;50.794;6.060;2023-03-03T12:05:09;133.07;;;44.05;;
26718;SDS011;14326;50.794;6.060;2023-03-03T12:07:53;139.05;;;46.53;;
26718;SDS011;14326;50.794;6.060;2023-03-03T12:10:35;145.65;;;45.78;;
26718;SDS011;14326;50.794;6.060;2023-03-03T12:13:11;129.38;;;43.95;;
26718;SDS011;14326;50.794;6.060;2023-03-03T12:15:47;131.02;;;44.75;;
26718;SDS011;14326;50.794;6.060;2023-03-03T12:18:30;138.52;;;44.47;;
26718;SDS011;14326;50.794;6.060;2023-03-03T12:21:13;136.75;;;42.67;;
26718;SDS011;14326;50.794;6.060;2023-03-03T12:23:50;135.05;;;44.08;;
26718;SDS011;14326;50.794;6.060;2023-03-03T12:26:32;126.43;;;44.47;;
26718;SDS011;14326;50.794;6.060;2023-03-03T12:29:12;131.00;;;42.70;;
26718;SDS011;14326;50.794;6.060;2023-03-03T12:31:53;128.52;;;42.92;;
26718;SDS011;14326;50.794;6.060;2023-03-03T12:34:26;132.73;;;44.50;;
26718;SDS011;14326;50.794;6.060;2023-03-03T12:37:02;137.75;;;45.90;;
26718;SDS011;14326;50.794;6.060;2023-03-03T12:39:45;124.43;;;40.67;;
26718;SDS011;14326;50.794;6.060;2023-03-03T12:42:35;133.98;;;44.33;;
26718;SDS011;14326;50.794;6.060;2023-03-03T12:45:20;138.27;;;43.97;;
26718;SDS011;14326;50.794;6.060;2023-03-03T12:48:00;127.13;;;42.47;;
26718;SDS011;14326;50.794;6.060;2023-03-03T12:50:35;129.30;;;42.22;;
26718;SDS011;14326;50.794;6.060;2023-03-03T12:53:13;135.82;;;43.45;;
26718;SDS011;14326;50.794;6.060;2023-03-03T12:55:49;135.90;;;44.00;;
26718;SDS011;14326;50.794;6.060;2023-03-03T12:58:24;135.73;;;44.85;;
26718;SDS011;14326;50.794;6.060;2023-03-03T13:01:05;140.35;;;46.38;;
26718;SDS011;14326;50.794;6.060;2023-03-03T13:03:42;123.10;;;42.15;;
26718;SDS011;14326;50.794;6.060;2023-03-03T13:06:21;136.93;;;45.95;;
26718;SDS011;14326;50.794;6.060;2023-03-03T13:09:00;129.30;;;44.72;;
26718;SDS011;14326;50.794;6.060;2023-03-03T13:11:52;138.68;;;46.20;;
26718;SDS011;14326;50.794;6.060;2023-03-03T13:14:30;122.30;;;41.42;;
26718;SDS011;14326;50.794;6.060;2023-03-03T13:17:16;120.63;;;43.72;;
26718;SDS011;14326;50.794;6.060;2023-03-03T13:19:51;126.85;;;42.90;;
26718;SDS011;14326;50.794;6.060;2023-03-03T13:22:28;129.05;;;44.38;;
26718;SDS011;14326;50.794;6.060;2023-03-03T13:25:06;122.70;;;44.17;;
26718;SDS011;14326;50.794;6.060;2023-03-03T13:28:01;146.95;;;47.50;;
26718;SDS011;14326;50.794;6.060;2023-03-03T13:30:36;131.93;;;44.78;;
26718;SDS011;14326;50.794;6.060;2023-03-03T13:33:22;142.20;;;45.70;;
26718;SDS011;14326;50.794;6.060;2023-03-03T13:35:54;137.40;;;47.67;;
26718;SDS011;14326;50.794;6.060;2023-03-03T13:38:25;144.85;;;46.22;;
26718;SDS011;14326;50.794;6.060;2023-03-03T13:40:58;146.57;;;49.75;;
26718;SDS011;14326;50.794;6.060;2023-03-03T13:43:35;148.35;;;50.55;;
26718;SDS011;14326;50.794;6.060;2023-03-03T13:46:11;143.32;;;48.92;;
26718;SDS011;14326;50.794;6.060;2023-03-03T13:48:55;154.27;;;50.70;;
26718;SDS011;14326;50.794;6.060;2023-03-03T13:51:32;140.18;;;50.47;;
26718;SDS011;14326;50.794;6.060;2023-03-03T13:54:09;141.82;;;49.85;;
26718;SDS011;14326;50.794;6.060;2023-03-03T13:56:49;137.27;;;47.38;;
26718;SDS011;14326;50.794;6.060;2023-03-03T13:59:33;139.25;;;49.75;;
26718;SDS011;14326;50.794;6.060;2023-03-03T14:02:15;144.00;;;48.42;;
26718;SDS011;14326;50.794;6.060;2023-03-03T14:05:07;143.57;;;49.10;;
26718;SDS011;14326;50.794;6.060;2023-03-03T14:07:42;133.73;;;49.55;;
26718;SDS011;14326;50.794;6.060;2023-03-03T14:10:16;136.70;;;50.35;;
26718;SDS011;14326;50.794;6.060;2023-03-03T14:12:49;124.20;;;45.85;;
26718;SDS011;14326;50.794;6.060;2023-03-03T14:15:23;134.95;;;45.65;;
26718;SDS011;14326;50.794;6.060;2023-03-03T14:20:57;129.50;;;46.75;;
26718;SDS011;14326;50.794;6.060;2023-03-03T14:23:30;129.38;;;42.97;;
26718;SDS011;14326;50.794;6.060;2023-03-03T14:26:08;118.50;;;43.50;;
26718;SDS011;14326;50.794;6.060;2023-03-03T14:28:38;130.68;;;47.45;;
26718;SDS011;14326;50.794;6.060;2023-03-03T14:31:16;124.35;;;44.58;;
26718;SDS011;14326;50.794;6.060;2023-03-03T14:33:58;128.80;;;44.63;;
26718;SDS011;14326;50.794;6.060;2023-03-03T14:36:30;124.43;;;44.67;;
26718;SDS011;14326;50.794;6.060;2023-03-03T14:38:59;116.13;;;42.90;;
26718;SDS011;14326;50.794;6.060;2023-03-03T14:41:34;119.32;;;43.35;;
26718;SDS011;14326;50.794;6.060;2023-03-03T14:44:24;118.88;;;42.65;;
26718;SDS011;14326;50.794;6.060;2023-03-03T14:50:03;105.03;;;39.10;;
26718;SDS011;14326;50.794;6.060;2023-03-03T14:55:49;101.68;;;37.25;;
26718;SDS011;14326;50.794;6.060;2023-03-03T14:58:26;97.93;;;37.03;;
26718;SDS011;14326;50.794;6.060;2023-03-03T15:01:07;105.57;;;39.58;;
26718;SDS011;14326;50.794;6.060;2023-03-03T15:06:12;92.57;;;35.28;;
26718;SDS011;14326;50.794;6.060;2023-03-03T15:09:20;94.32;;;35.70;;
26718;SDS011;14326;50.794;6.060;2023-03-03T15:11:52;95.80;;;35.42;;
26718;SDS011;14326;50.794;6.060;2023-03-03T15:14:24;102.85;;;37.15;;
26718;SDS011;14326;50.794;6.060;2023-03-03T15:17:10;97.90;;;35.70;;
26718;SDS011;14326;50.794;6.060;2023-03-03T15:19:59;96.50;;;36.22;;
26718;SDS011;14326;50.794;6.060;2023-03-03T15:22:45;84.00;;;32.58;;
26718;SDS011;14326;50.794;6.060;2023-03-03T15:25:19;86.28;;;32.70;;
26718;SDS011;14326;50.794;6.060;2023-03-03T15:27:55;77.95;;;30.42;;
26718;SDS011;14326;50.794;6.060;2023-03-03T15:30:34;85.15;;;31.88;;
26718;SDS011;14326;50.794;6.060;2023-03-03T15:33:09;84.47;;;33.08;;
26718;SDS011;14326;50.794;6.060;2023-03-03T15:35:48;81.35;;;28.40;;
26718;SDS011;14326;50.794;6.060;2023-03-03T15:38:22;81.05;;;30.90;;
26718;SDS011;14326;50.794;6.060;2023-03-03T15:41:03;76.65;;;28.77;;
26718;SDS011;14326;50.794;6.060;2023-03-03T15:43:42;70.80;;;26.98;;